createdAt,value
2018-12-03T00:01:32.162Z,10.70
2018-12-03T00:04:22.589Z,10.37
2018-12-03T00:06:51.805Z,9.90
2018-12-03T00:09:21.123Z,10.27
2018-12-03T00:11:50.298Z,11.33
2018-12-03T00:14:19.310Z,10.63
2018-12-03T00:16:48.206Z,10.93
2018-12-03T00:19:17.125Z,10.10
2018-12-03T00:21:46.075Z,10.73
2018-12-03T00:24:15.009Z,10.70
2018-12-03T00:26:43.873Z,12.90
2018-12-03T00:29:12.818Z,11.50
2018-12-03T00:31:41.709Z,10.87
2018-12-03T00:34:10.711Z,11.93
2018-12-03T00:36:39.568Z,11.93
2018-12-03T00:39:08.835Z,11.70
2018-12-03T00:41:37.811Z,11.87
2018-12-03T00:44:06.902Z,12.03
2018-12-03T00:46:35.839Z,11.63
2018-12-03T00:49:04.970Z,13.17
2018-12-03T00:51:33.838Z,12.93
2018-12-03T00:54:02.681Z,12.37
2018-12-03T00:56:31.611Z,12.70
2018-12-03T00:59:00.521Z,12.40
2018-12-03T01:01:34.740Z,12.00
2018-12-03T01:04:04.447Z,12.17
2018-12-03T01:06:33.612Z,12.13
2018-12-03T01:09:02.760Z,13.07
2018-12-03T01:11:31.579Z,12.37
2018-12-03T01:14:00.431Z,12.43
2018-12-03T01:16:29.315Z,12.73
2018-12-03T01:18:58.227Z,13.13
2018-12-03T01:21:27.207Z,13.23
2018-12-03T01:23:56.130Z,13.23
2018-12-03T01:26:24.975Z,13.27
2018-12-03T01:28:53.791Z,12.73
2018-12-03T01:31:22.710Z,14.37
2018-12-03T01:33:51.619Z,13.70
2018-12-03T01:36:20.553Z,13.60
2018-12-03T01:38:49.382Z,13.27
2018-12-03T01:41:18.283Z,13.17
2018-12-03T01:43:47.168Z,13.73
2018-12-03T01:46:16.190Z,13.40
2018-12-03T01:48:45.083Z,13.80
2018-12-03T01:51:13.991Z,14.33
2018-12-03T01:53:42.852Z,14.90
2018-12-03T01:56:11.813Z,14.33
2018-12-03T01:58:40.746Z,14.07
2018-12-03T02:01:09.698Z,14.00
2018-12-03T02:03:39.174Z,14.03
2018-12-03T02:06:08.079Z,14.20
2018-12-03T02:08:37.268Z,15.27
2018-12-03T02:11:06.593Z,15.17
2018-12-03T02:13:35.416Z,15.47
2018-12-03T02:16:04.645Z,16.20
2018-12-03T02:18:33.494Z,15.20
2018-12-03T02:21:02.376Z,13.93
2018-12-03T02:23:31.227Z,15.20
2018-12-03T02:26:00.066Z,15.30
2018-12-03T02:28:28.891Z,14.77
2018-12-03T02:30:58.303Z,14.30
2018-12-03T02:33:27.150Z,15.93
2018-12-03T02:35:56.048Z,14.17
2018-12-03T02:38:24.950Z,14.57
2018-12-03T02:40:53.791Z,14.63
2018-12-03T02:43:22.703Z,15.70
2018-12-03T02:45:51.514Z,14.77
2018-12-03T02:48:20.516Z,15.33
2018-12-03T02:50:49.342Z,14.57
2018-12-03T02:53:18.194Z,15.23
2018-12-03T02:55:47.078Z,14.50
2018-12-03T02:58:15.978Z,14.23
2018-12-03T03:00:46.326Z,14.97
2018-12-03T03:03:13.865Z,14.63
2018-12-03T03:05:42.738Z,14.93
2018-12-03T03:08:11.620Z,13.77
2018-12-03T03:10:40.396Z,15.40
2018-12-03T03:13:09.349Z,14.00
2018-12-03T03:15:38.175Z,15.10
2018-12-03T03:18:07.430Z,15.07
2018-12-03T03:20:36.580Z,14.03
2018-12-03T03:23:06.024Z,14.63
2018-12-03T03:25:35.109Z,14.37
2018-12-03T03:28:04.049Z,14.43
2018-12-03T03:30:32.900Z,14.67
2018-12-03T03:33:01.762Z,15.73
2018-12-03T03:35:30.641Z,13.67
2018-12-03T03:37:59.623Z,15.23
2018-12-03T03:40:28.487Z,14.93
2018-12-03T03:42:57.477Z,14.73
2018-12-03T03:45:26.595Z,15.47
2018-12-03T03:47:55.417Z,15.47
2018-12-03T03:50:24.360Z,15.03
2018-12-03T03:52:53.244Z,15.43
2018-12-03T03:55:22.189Z,15.57
2018-12-03T03:57:51.028Z,16.03
2018-12-03T04:00:19.907Z,15.47
2018-12-03T04:02:48.819Z,15.57
2018-12-03T04:05:17.734Z,14.33
2018-12-03T04:07:46.953Z,16.17
2018-12-03T04:10:16.423Z,14.53
2018-12-03T04:12:46.444Z,14.40
2018-12-03T04:15:16.627Z,15.40
2018-12-03T04:17:45.483Z,13.87
2018-12-03T04:20:18.897Z,15.53
2018-12-03T04:22:49.925Z,13.77
2018-12-03T04:25:18.894Z,14.07
2018-12-03T04:27:48.240Z,14.97
2018-12-03T04:30:19.207Z,13.23
2018-12-03T04:32:48.046Z,13.03
2018-12-03T04:35:16.956Z,13.13
2018-12-03T04:37:45.998Z,13.70
2018-12-03T04:40:16.492Z,13.67
2018-12-03T04:42:45.361Z,14.10
2018-12-03T04:45:17.887Z,13.13
2018-12-03T04:47:48.414Z,13.43
2018-12-03T04:50:19.959Z,14.60
2018-12-03T04:52:48.837Z,13.07
2018-12-03T04:55:19.192Z,13.17
2018-12-03T04:57:48.279Z,11.90
2018-12-03T05:00:18.746Z,12.23
2018-12-03T05:02:50.342Z,11.90
2018-12-03T05:05:19.256Z,12.27
2018-12-03T05:07:48.232Z,12.70
2018-12-03T05:10:18.697Z,12.87
2018-12-03T05:12:50.550Z,12.03
2018-12-03T05:15:19.475Z,12.07
2018-12-03T05:17:48.395Z,12.70
2018-12-03T05:20:21.371Z,11.50
2018-12-03T05:22:50.243Z,11.47
2018-12-03T05:25:19.708Z,11.80
2018-12-03T05:27:48.122Z,11.97
2018-12-03T05:30:17.423Z,11.60
2018-12-03T05:32:46.966Z,11.47
2018-12-03T05:35:25.190Z,11.67
2018-12-03T05:37:54.190Z,12.30
2018-12-03T05:40:26.216Z,11.07
2018-12-03T05:42:55.170Z,10.53
2018-12-03T05:45:24.481Z,10.63
2018-12-03T05:47:53.375Z,10.10
2018-12-03T05:50:22.603Z,8.77
2018-12-03T05:52:51.768Z,8.20
2018-12-03T05:55:20.657Z,8.30
2018-12-03T05:57:49.504Z,8.37
2018-12-03T06:00:21.444Z,7.73
2018-12-03T06:02:50.974Z,8.33
2018-12-03T06:05:19.813Z,8.47
2018-12-03T06:07:48.706Z,7.40
2018-12-03T06:10:19.771Z,8.03
2018-12-03T06:12:49.063Z,8.20
2018-12-03T06:15:19.371Z,9.43
2018-12-03T06:17:50.091Z,7.73
2018-12-03T06:20:20.071Z,8.70
2018-12-03T06:22:50.990Z,8.53
2018-12-03T06:25:23.387Z,8.47
2018-12-03T06:27:52.205Z,8.43
2018-12-03T06:30:22.887Z,9.00
2018-12-03T06:32:51.780Z,9.20
2018-12-03T06:35:21.120Z,9.37
2018-12-03T06:37:50.545Z,10.60
2018-12-03T06:40:28.759Z,9.67
2018-12-03T06:42:57.699Z,9.40
2018-12-03T06:45:27.352Z,8.87
2018-12-03T06:48:01.602Z,9.83
2018-12-03T06:50:30.422Z,9.23
2018-12-03T06:52:59.406Z,9.47
2018-12-03T06:55:28.302Z,11.13
2018-12-03T06:57:57.688Z,8.97
2018-12-03T07:00:26.955Z,9.27
2018-12-03T07:02:56.499Z,9.87
2018-12-03T07:05:25.382Z,10.57
2018-12-03T07:07:57.964Z,9.53
2018-12-03T07:10:26.952Z,9.70
2018-12-03T07:13:01.306Z,9.70
2018-12-03T07:15:33.136Z,10.37
2018-12-03T07:18:01.977Z,9.93
2018-12-03T07:20:30.866Z,9.90
2018-12-03T07:22:59.786Z,10.33
2018-12-03T07:25:28.687Z,9.63
2018-12-03T07:27:57.603Z,9.97
2018-12-03T07:30:26.975Z,10.00
2018-12-03T07:32:55.860Z,10.37
2018-12-03T07:35:25.420Z,10.07
2018-12-03T07:37:56.210Z,8.90
2018-12-03T07:40:25.135Z,9.50
2018-12-03T07:42:53.959Z,8.63
2018-12-03T07:45:24.172Z,7.97
2018-12-03T07:47:53.034Z,8.20
2018-12-03T07:50:23.437Z,7.03
2018-12-03T07:52:52.590Z,6.30
2018-12-03T07:55:24.150Z,6.27
2018-12-03T07:58:01.269Z,6.97
2018-12-03T08:00:33.769Z,5.83
2018-12-03T08:03:02.619Z,6.00
2018-12-03T08:05:31.450Z,7.10
2018-12-03T08:08:00.334Z,6.00
2018-12-03T08:10:29.219Z,6.20
2018-12-03T08:12:58.062Z,5.63
2018-12-03T08:15:26.930Z,5.80
2018-12-03T08:17:59.857Z,6.37
2018-12-03T08:20:43.990Z,5.77
2018-12-03T08:23:20.564Z,5.37
2018-12-03T08:25:49.415Z,5.33
2018-12-03T08:28:18.410Z,6.60
2018-12-03T08:30:47.372Z,7.13
2018-12-03T08:33:16.230Z,6.70
2018-12-03T08:35:45.116Z,7.13
2018-12-03T08:38:13.935Z,7.07
2018-12-03T08:40:42.776Z,6.80
2018-12-03T08:43:11.743Z,6.13
2018-12-03T08:45:41.112Z,6.60
2018-12-03T08:48:09.948Z,5.70
2018-12-03T08:50:43.594Z,5.03
2018-12-03T08:53:12.512Z,5.90
2018-12-03T08:55:41.470Z,4.37
2018-12-03T08:58:13.575Z,5.23
2018-12-03T09:02:06.104Z,5.17
2018-12-03T09:04:35.119Z,5.80
2018-12-03T09:07:04.054Z,5.50
2018-12-03T09:09:32.977Z,4.67
2018-12-03T09:12:01.832Z,4.13
2018-12-03T09:14:33.498Z,4.07
2018-12-03T09:17:02.819Z,4.17
2018-12-03T09:19:31.582Z,4.13
2018-12-03T09:22:00.473Z,4.67
2018-12-03T09:24:29.553Z,4.90
2018-12-03T09:26:58.374Z,4.03
2018-12-03T09:29:27.330Z,4.87
2018-12-03T09:31:56.180Z,3.70
2018-12-03T09:34:25.055Z,4.77
2018-12-03T09:36:53.867Z,5.30
2018-12-03T09:39:22.763Z,5.27
2018-12-03T09:41:51.659Z,4.07
2018-12-03T09:44:20.578Z,4.43
2018-12-03T09:46:49.399Z,4.27
2018-12-03T09:49:18.281Z,4.17
2018-12-03T09:51:47.173Z,3.67
2018-12-03T09:54:16.216Z,3.30
2018-12-03T09:56:49.044Z,3.50
2018-12-03T09:59:22.303Z,4.80
2018-12-03T10:01:55.239Z,3.13
2018-12-03T10:04:29.254Z,3.33
2018-12-03T10:06:58.347Z,3.10
2018-12-03T10:09:27.895Z,4.03
2018-12-03T10:11:59.461Z,3.27
2018-12-03T10:14:28.706Z,3.27
2018-12-03T10:16:57.660Z,4.53
2018-12-03T10:19:26.695Z,4.00
2018-12-03T10:21:56.281Z,3.30
2018-12-03T10:24:25.283Z,4.27
2018-12-03T10:26:54.740Z,3.43
2018-12-03T10:29:23.830Z,3.47
2018-12-03T10:31:52.872Z,3.77
2018-12-03T10:34:21.799Z,3.70
2018-12-03T10:36:56.904Z,3.67
2018-12-03T10:39:30.619Z,3.77
2018-12-03T10:42:10.358Z,3.67
2018-12-03T10:44:40.453Z,3.60
2018-12-03T10:47:09.833Z,4.07
2018-12-03T10:49:39.019Z,3.20
2018-12-03T10:52:08.081Z,3.03
2018-12-03T10:54:40.454Z,4.03
2018-12-03T10:57:10.867Z,3.53
2018-12-03T10:59:39.941Z,3.80
2018-12-03T11:03:13.773Z,3.63
2018-12-03T11:05:49.163Z,4.10
2018-12-03T11:08:24.145Z,3.47
2018-12-03T11:10:55.362Z,4.43
2018-12-03T11:13:25.047Z,3.70
2018-12-03T11:15:54.097Z,4.13
2018-12-03T11:18:23.205Z,4.30
2018-12-03T11:20:52.173Z,4.50
2018-12-03T11:23:23.467Z,3.97
2018-12-03T11:25:52.928Z,4.63
2018-12-03T11:28:21.848Z,4.47
2018-12-03T11:30:54.359Z,4.60
2018-12-03T11:33:26.965Z,5.30
2018-12-03T11:35:58.258Z,4.63
2018-12-03T11:38:40.424Z,4.77
2018-12-03T11:41:09.347Z,5.17
2018-12-03T11:43:38.279Z,4.40
2018-12-03T11:46:07.526Z,4.50
2018-12-03T11:48:36.571Z,5.13
2018-12-03T11:51:06.887Z,4.87
2018-12-03T11:53:36.726Z,5.30
2018-12-03T11:56:07.075Z,5.57
2018-12-03T11:58:36.066Z,4.83
2018-12-03T12:01:05.192Z,5.27
2018-12-03T12:03:42.628Z,5.57
2018-12-03T12:06:08.990Z,5.30
2018-12-03T12:08:45.070Z,4.83
2018-12-03T12:11:14.167Z,5.63
2018-12-03T12:13:43.333Z,5.73
2018-12-03T12:16:12.564Z,5.53
2018-12-03T12:18:42.200Z,5.50
2018-12-03T12:21:11.783Z,5.83
2018-12-03T12:23:40.861Z,5.63
2018-12-03T12:26:10.715Z,5.50
2018-12-03T12:28:40.156Z,6.33
2018-12-03T12:31:09.513Z,5.80
2018-12-03T12:33:38.728Z,5.53
2018-12-03T12:36:08.346Z,5.43
2018-12-03T12:38:37.545Z,6.20
2018-12-03T12:41:07.064Z,7.23
2018-12-03T12:43:36.132Z,5.03
2018-12-03T12:46:10.534Z,5.60
2018-12-03T12:48:39.592Z,5.83
2018-12-03T12:51:09.035Z,6.47
2018-12-03T12:53:37.984Z,6.67
2018-12-03T12:56:07.249Z,7.27
2018-12-03T12:58:36.559Z,6.70
2018-12-03T13:01:06.928Z,8.00
2018-12-03T13:03:37.511Z,7.80
2018-12-03T13:06:07.010Z,7.63
2018-12-03T13:08:37.054Z,7.17
2018-12-03T13:11:07.471Z,6.80
2018-12-03T13:13:36.578Z,6.97
2018-12-03T13:16:06.137Z,6.67
2018-12-03T13:18:35.236Z,6.90
2018-12-03T13:21:05.059Z,7.00
2018-12-03T13:23:33.948Z,6.87
2018-12-03T13:26:02.921Z,6.97
2018-12-03T13:28:32.203Z,6.73
2018-12-03T13:31:01.389Z,6.30
2018-12-03T13:33:31.151Z,6.27
2018-12-03T13:36:01.527Z,7.50
2018-12-03T13:38:30.862Z,6.80
2018-12-03T13:41:00.465Z,6.13
2018-12-03T13:43:29.729Z,6.23
2018-12-03T13:45:58.826Z,5.67
2018-12-03T13:48:27.965Z,6.17
2018-12-03T13:50:57.180Z,6.70
2018-12-03T13:53:26.287Z,6.17
2018-12-03T13:55:55.938Z,6.53
2018-12-03T13:58:25.696Z,6.17
2018-12-03T14:00:54.812Z,6.83
2018-12-03T14:03:29.678Z,5.97
2018-12-03T14:06:15.419Z,6.27
2018-12-03T14:09:48.911Z,6.20
2018-12-03T14:12:41.155Z,7.27
2018-12-03T14:15:29.733Z,6.63
2018-12-03T14:18:39.287Z,6.27
2018-12-03T14:21:20.331Z,6.00
2018-12-03T14:23:52.828Z,6.60
2018-12-03T14:26:21.754Z,6.57
2018-12-03T14:28:51.004Z,6.17
2018-12-03T14:31:20.004Z,6.53
2018-12-03T14:33:49.066Z,6.00
2018-12-03T14:36:18.463Z,6.40
2018-12-03T14:38:47.364Z,6.47
2018-12-03T14:41:16.509Z,6.73
2018-12-03T14:43:45.609Z,6.70
2018-12-03T14:46:14.515Z,5.97
2018-12-03T14:48:43.374Z,6.20
2018-12-03T14:51:12.266Z,6.97
2018-12-03T14:53:41.128Z,6.80
2018-12-03T14:56:10.110Z,6.67
2018-12-03T14:58:38.957Z,6.90
2018-12-03T15:01:08.703Z,6.13
2018-12-03T15:03:37.695Z,6.77
2018-12-03T15:06:07.880Z,6.77
2018-12-03T15:08:37.005Z,6.33
2018-12-03T15:11:07.256Z,6.70
2018-12-03T15:13:36.445Z,7.43
2018-12-03T15:16:05.596Z,6.50
2018-12-03T15:18:34.731Z,6.27
2018-12-03T15:21:03.663Z,5.80
2018-12-03T15:23:32.529Z,6.20
2018-12-03T15:26:01.410Z,6.57
2018-12-03T15:28:30.326Z,6.37
2018-12-03T15:30:59.596Z,5.43
2018-12-03T15:33:28.439Z,6.40
2018-12-03T15:35:57.299Z,6.10
2018-12-03T15:38:58.688Z,7.63
2018-12-03T15:41:27.816Z,7.07
2018-12-03T15:43:56.738Z,6.40
2018-12-03T15:46:26.140Z,6.03
2018-12-03T15:48:55.138Z,6.10
2018-12-03T15:51:24.177Z,7.20
2018-12-03T15:53:53.847Z,6.37
2018-12-03T15:56:24.513Z,6.53
2018-12-03T15:58:54.220Z,6.10
2018-12-03T16:01:23.198Z,6.57
2018-12-03T16:03:52.853Z,6.30
2018-12-03T16:06:22.285Z,5.63
2018-12-03T16:08:51.760Z,6.83
2018-12-03T16:11:21.450Z,6.50
2018-12-03T16:13:50.935Z,7.03
2018-12-03T16:16:19.928Z,6.40
2018-12-03T16:18:50.055Z,6.40
2018-12-03T16:21:19.107Z,5.87
2018-12-03T16:23:48.419Z,7.30
2018-12-03T16:26:17.433Z,5.90
2018-12-03T16:28:46.528Z,7.63
2018-12-03T16:31:15.791Z,6.23
2018-12-03T16:33:44.753Z,6.07
2018-12-03T16:36:14.049Z,7.87
2018-12-03T16:38:43.060Z,7.10
2018-12-03T16:41:11.965Z,6.53
2018-12-03T16:43:40.976Z,6.70
2018-12-03T16:46:09.939Z,6.57
2018-12-03T16:48:38.908Z,6.37
2018-12-03T16:51:07.816Z,5.97
2018-12-03T16:53:37.007Z,6.67
2018-12-03T16:56:05.977Z,6.33
2018-12-03T16:58:35.102Z,6.87
2018-12-03T17:01:04.367Z,6.80
2018-12-03T17:03:33.322Z,6.90
2018-12-03T17:06:02.224Z,7.43
2018-12-03T17:08:31.402Z,6.37
2018-12-03T17:11:00.891Z,7.10
2018-12-03T17:13:29.827Z,6.47
2018-12-03T17:15:58.763Z,7.00
2018-12-03T17:18:27.711Z,6.53
2018-12-03T17:21:07.275Z,6.77
2018-12-03T17:24:13.136Z,6.00
2018-12-03T17:26:42.477Z,6.23
2018-12-03T17:29:11.419Z,6.53
2018-12-03T17:31:40.436Z,6.33
2018-12-03T17:34:09.396Z,7.50
2018-12-03T17:36:38.907Z,7.37
2018-12-03T17:39:08.653Z,5.90
2018-12-03T17:41:37.591Z,6.77
2018-12-03T17:44:07.312Z,6.43
2018-12-03T17:46:36.254Z,6.03
2018-12-03T17:49:05.407Z,6.17
2018-12-03T17:51:34.409Z,5.77
2018-12-03T17:54:03.869Z,6.23
2018-12-03T17:56:33.253Z,5.83
2018-12-03T17:59:02.585Z,6.07
2018-12-03T18:01:31.531Z,7.57
2018-12-03T18:04:00.557Z,5.07
2018-12-03T18:06:29.469Z,7.20
2018-12-03T18:08:58.485Z,6.70
2018-12-03T18:11:27.363Z,6.00
2018-12-03T18:13:56.520Z,6.60
2018-12-03T18:16:26.187Z,7.67
2018-12-03T18:18:55.111Z,7.23
2018-12-03T18:21:24.043Z,6.17
2018-12-03T18:23:53.042Z,7.43
2018-12-03T18:26:21.904Z,6.40
2018-12-03T18:28:50.870Z,7.10
2018-12-03T18:31:19.926Z,7.80
2018-12-03T18:33:49.292Z,6.93
2018-12-03T18:36:18.578Z,7.30
2018-12-03T18:38:47.677Z,7.83
2018-12-03T18:41:16.640Z,7.13
2018-12-03T18:43:45.878Z,8.17
2018-12-03T18:46:15.182Z,8.50
2018-12-03T18:48:45.839Z,7.43
2018-12-03T18:51:14.791Z,8.03
2018-12-03T18:53:43.663Z,8.27
2018-12-03T18:56:12.575Z,8.70
2018-12-03T18:59:03.684Z,8.40
2018-12-03T19:01:33.152Z,8.67
2018-12-03T19:04:02.360Z,8.87
2018-12-03T19:06:32.579Z,7.97
2018-12-03T19:09:01.642Z,10.93
2018-12-03T19:11:30.631Z,9.93
2018-12-03T19:13:59.777Z,8.63
2018-12-03T19:16:28.718Z,9.50
2018-12-03T19:18:57.607Z,10.40
2018-12-03T19:21:26.633Z,10.20
2018-12-03T19:23:55.595Z,8.70
2018-12-03T19:26:24.878Z,11.17
2018-12-03T19:28:53.931Z,9.17
2018-12-03T19:31:22.890Z,9.60
2018-12-03T19:33:51.868Z,10.13
2018-12-03T19:36:20.774Z,8.93
2018-12-03T19:38:50.004Z,9.60
2018-12-03T19:41:18.957Z,9.80
2018-12-03T19:43:47.877Z,10.03
2018-12-03T19:46:16.918Z,9.97
2018-12-03T19:48:45.817Z,10.23
2018-12-03T19:51:14.726Z,9.80
2018-12-03T19:53:44.572Z,10.33
2018-12-03T19:56:13.865Z,10.60
2018-12-03T19:58:46.579Z,10.13
2018-12-03T20:01:15.607Z,10.83
2018-12-03T20:03:44.542Z,10.53
2018-12-03T20:06:13.700Z,10.43
2018-12-03T20:08:42.790Z,10.00
2018-12-03T20:11:11.806Z,11.07
2018-12-03T20:13:40.816Z,10.80
2018-12-03T20:16:11.027Z,12.50
2018-12-03T20:18:40.455Z,12.47
2018-12-03T20:21:20.425Z,12.13
2018-12-03T20:24:02.555Z,10.83
2018-12-03T20:26:44.317Z,11.77
2018-12-03T20:29:31.979Z,10.23
2018-12-03T20:32:46.817Z,10.73
2018-12-03T20:37:28.952Z,10.37
2018-12-03T20:40:22.761Z,10.07
2018-12-03T20:42:59.613Z,9.13
2018-12-03T20:45:47.145Z,8.80
2018-12-03T20:48:19.452Z,9.50
2018-12-03T20:50:59.253Z,8.73
2018-12-03T20:53:43.322Z,8.47
2018-12-03T20:56:13.576Z,8.13
2018-12-03T20:58:42.570Z,6.07
2018-12-03T21:01:11.502Z,1.77
2018-12-03T21:03:40.498Z,1.80
2018-12-03T21:06:09.448Z,1.87
2018-12-03T21:08:38.419Z,2.40
2018-12-03T21:11:07.491Z,2.00
2018-12-03T21:13:36.866Z,2.03
2018-12-03T21:16:06.095Z,1.53
2018-12-03T21:18:35.090Z,1.60
2018-12-03T21:21:07.265Z,1.90
2018-12-03T21:23:36.235Z,1.63
2018-12-03T21:26:05.612Z,2.07
2018-12-03T21:28:34.999Z,2.53
2018-12-03T21:31:03.983Z,3.90
2018-12-03T21:33:33.064Z,2.20
2018-12-03T21:36:01.978Z,2.83
2018-12-03T21:38:30.922Z,1.70
2018-12-03T21:40:59.809Z,1.80
2018-12-03T21:43:28.806Z,1.77
2018-12-03T21:45:57.785Z,1.57
2018-12-03T21:48:26.981Z,1.27
2018-12-03T21:50:56.358Z,1.90
2018-12-03T21:53:25.335Z,1.60
2018-12-03T21:55:54.547Z,1.73
2018-12-03T21:58:23.661Z,1.70
2018-12-03T22:00:52.566Z,1.73
2018-12-03T22:03:21.500Z,1.43
2018-12-03T22:05:50.434Z,1.23
2018-12-03T22:08:19.358Z,1.50
2018-12-03T22:10:48.846Z,1.67
2018-12-03T22:13:18.156Z,1.53
2018-12-03T22:15:47.044Z,2.03
2018-12-03T22:18:16.061Z,1.57
2018-12-03T22:20:44.984Z,1.23
2018-12-03T22:23:14.325Z,1.83
2018-12-03T22:25:43.247Z,1.50
2018-12-03T22:28:12.084Z,1.63
2018-12-03T22:30:40.991Z,1.70
2018-12-03T22:33:09.901Z,1.77
2018-12-03T22:35:38.925Z,1.50
2018-12-03T22:38:07.773Z,1.40
2018-12-03T22:40:36.694Z,1.87
2018-12-03T22:43:05.589Z,1.73
2018-12-03T22:45:34.542Z,1.00
2018-12-03T22:48:03.558Z,1.23
2018-12-03T22:50:32.490Z,1.50
2018-12-03T22:53:01.428Z,1.80
2018-12-03T22:55:30.861Z,1.37
2018-12-03T22:57:59.838Z,1.57
2018-12-03T23:00:34.663Z,2.40
2018-12-03T23:03:03.717Z,1.40
2018-12-03T23:05:32.715Z,1.30
2018-12-03T23:08:03.535Z,1.63
2018-12-03T23:10:34.504Z,2.07
2018-12-03T23:13:03.803Z,1.30
2018-12-03T23:15:38.990Z,1.17
2018-12-03T23:18:08.071Z,1.77
2018-12-03T23:20:37.047Z,1.53
2018-12-03T23:23:05.956Z,1.63
2018-12-03T23:25:36.804Z,1.60
2018-12-03T23:28:05.701Z,1.53
2018-12-03T23:30:34.771Z,1.37
2018-12-03T23:33:04.002Z,1.77
2018-12-03T23:35:33.512Z,1.43
2018-12-03T23:38:02.447Z,2.00
2018-12-03T23:40:31.837Z,1.73
2018-12-03T23:43:00.847Z,1.77
2018-12-03T23:45:29.736Z,1.43
2018-12-03T23:47:58.679Z,2.13
2018-12-03T23:50:27.595Z,3.17
2018-12-03T23:52:56.648Z,2.23
2018-12-03T23:55:25.579Z,1.93
2018-12-03T23:57:54.635Z,1.97
